sensor_id;sensor_type;location;lat;lon;timestamp;temperature;humidity
18506;DHT22;9382;53.242;10.438;2023-06-14T00:01:14;14.30;99.90
18506;DHT22;9382;53.242;10.438;2023-06-14T00:03:40;14.30;99.90
18506;DHT22;9382;53.242;10.438;2023-06-14T00:06:07;14.20;99.90
18506;DHT22;9382;53.242;10.438;2023-06-14T00:08:34;14.20;99.90
18506;DHT22;9382;53.242;10.438;2023-06-14T00:11:00;14.10;99.90
18506;DHT22;9382;53.242;10.438;2023-06-14T00:13:27;14.10;99.90
18506;DHT22;9382;53.242;10.438;2023-06-14T00:15:55;14.10;99.90
18506;DHT22;9382;53.242;10.438;2023-06-14T00:18:21;14.00;99.90
18506;DHT22;9382;53.242;10.438;2023-06-14T00:20:52;14.00;99.90
18506;DHT22;9382;53.242;10.438;2023-06-14T00:23:18;13.90;99.90
18506;DHT22;9382;53.242;10.438;2023-06-14T00:25:45;13.90;99.90
18506;DHT22;9382;53.242;10.438;2023-06-14T00:28:12;13.80;99.90
18506;DHT22;9382;53.242;10.438;2023-06-14T00:30:39;13.80;99.90
18506;DHT22;9382;53.242;10.438;2023-06-14T00:33:07;13.80;99.90
18506;DHT22;9382;53.242;10.438;2023-06-14T00:35:34;13.70;99.90
18506;DHT22;9382;53.242;10.438;2023-06-14T00:38:00;13.70;99.90
18506;DHT22;9382;53.242;10.438;2023-06-14T00:40:27;13.60;99.90
18506;DHT22;9382;53.242;10.438;2023-06-14T00:42:54;13.60;99.90
18506;DHT22;9382;53.242;10.438;2023-06-14T00:45:20;13.60;99.90
18506;DHT22;9382;53.242;10.438;2023-06-14T00:47:47;13.50;99.90
18506;DHT22;9382;53.242;10.438;2023-06-14T00:50:20;13.50;99.90
18506;DHT22;9382;53.242;10.438;2023-06-14T00:52:48;13.50;99.90
18506;DHT22;9382;53.242;10.438;2023-06-14T00:55:15;13.40;99.90
18506;DHT22;9382;53.242;10.438;2023-06-14T00:57:42;13.40;99.90
18506;DHT22;9382;53.242;10.438;2023-06-14T01:00:10;13.30;99.90
18506;DHT22;9382;53.242;10.438;2023-06-14T01:02:38;13.30;99.90
18506;DHT22;9382;53.242;10.438;2023-06-14T01:05:06;13.20;99.90
18506;DHT22;9382;53.242;10.438;2023-06-14T01:07:43;13.20;99.90
18506;DHT22;9382;53.242;10.438;2023-06-14T01:10:24;13.20;99.90
18506;DHT22;9382;53.242;10.438;2023-06-14T01:12:58;13.20;99.90
18506;DHT22;9382;53.242;10.438;2023-06-14T01:15:25;13.10;99.90
18506;DHT22;9382;53.242;10.438;2023-06-14T01:17:53;13.10;99.90
18506;DHT22;9382;53.242;10.438;2023-06-14T01:20:28;13.10;99.90
18506;DHT22;9382;53.242;10.438;2023-06-14T01:22:57;13.00;99.90
18506;DHT22;9382;53.242;10.438;2023-06-14T01:25:24;13.00;99.90
18506;DHT22;9382;53.242;10.438;2023-06-14T01:27:53;13.00;99.90
18506;DHT22;9382;53.242;10.438;2023-06-14T01:30:21;13.00;99.90
18506;DHT22;9382;53.242;10.438;2023-06-14T01:32:50;13.00;99.90
18506;DHT22;9382;53.242;10.438;2023-06-14T01:35:18;13.00;99.90
18506;DHT22;9382;53.242;10.438;2023-06-14T01:37:47;12.90;99.90
18506;DHT22;9382;53.242;10.438;2023-06-14T01:40:16;12.90;99.90
18506;DHT22;9382;53.242;10.438;2023-06-14T01:42:45;12.90;99.90
18506;DHT22;9382;53.242;10.438;2023-06-14T01:45:12;12.80;99.90
18506;DHT22;9382;53.242;10.438;2023-06-14T01:47:40;12.80;99.90
18506;DHT22;9382;53.242;10.438;2023-06-14T01:50:08;12.80;99.90
18506;DHT22;9382;53.242;10.438;2023-06-14T01:52:36;12.70;99.90
18506;DHT22;9382;53.242;10.438;2023-06-14T01:55:03;12.70;99.90
18506;DHT22;9382;53.242;10.438;2023-06-14T01:57:32;12.60;99.90
18506;DHT22;9382;53.242;10.438;2023-06-14T01:59:58;12.60;99.90
18506;DHT22;9382;53.242;10.438;2023-06-14T02:02:25;12.60;99.90
18506;DHT22;9382;53.242;10.438;2023-06-14T02:04:51;12.60;99.90
18506;DHT22;9382;53.242;10.438;2023-06-14T02:07:18;12.60;99.90
18506;DHT22;9382;53.242;10.438;2023-06-14T02:09:45;12.50;99.90
18506;DHT22;9382;53.242;10.438;2023-06-14T02:12:11;12.50;99.90
18506;DHT22;9382;53.242;10.438;2023-06-14T02:14:40;12.40;99.90
18506;DHT22;9382;53.242;10.438;2023-06-14T02:17:06;12.50;99.90
18506;DHT22;9382;53.242;10.438;2023-06-14T02:19:33;12.40;99.90
18506;DHT22;9382;53.242;10.438;2023-06-14T02:22:00;12.40;99.90
18506;DHT22;9382;53.242;10.438;2023-06-14T02:24:26;12.40;99.90
18506;DHT22;9382;53.242;10.438;2023-06-14T02:26:53;12.30;99.90
18506;DHT22;9382;53.242;10.438;2023-06-14T02:29:20;12.30;99.90
18506;DHT22;9382;53.242;10.438;2023-06-14T02:31:48;12.30;99.90
18506;DHT22;9382;53.242;10.438;2023-06-14T02:34:15;12.30;99.90
18506;DHT22;9382;53.242;10.438;2023-06-14T02:36:43;12.30;99.90
18506;DHT22;9382;53.242;10.438;2023-06-14T02:39:10;12.30;99.90
18506;DHT22;9382;53.242;10.438;2023-06-14T02:41:36;12.30;99.90
18506;DHT22;9382;53.242;10.438;2023-06-14T02:44:04;12.20;99.90
18506;DHT22;9382;53.242;10.438;2023-06-14T02:46:30;12.30;99.90
18506;DHT22;9382;53.242;10.438;2023-06-14T02:48:59;12.30;99.90
18506;DHT22;9382;53.242;10.438;2023-06-14T02:51:25;12.20;99.90
18506;DHT22;9382;53.242;10.438;2023-06-14T02:53:52;12.20;99.90
18506;DHT22;9382;53.242;10.438;2023-06-14T02:56:19;12.20;99.90
18506;DHT22;9382;53.242;10.438;2023-06-14T02:58:45;12.20;99.90
18506;DHT22;9382;53.242;10.438;2023-06-14T03:01:14;12.20;99.90
18506;DHT22;9382;53.242;10.438;2023-06-14T03:03:40;12.20;99.90
18506;DHT22;9382;53.242;10.438;2023-06-14T03:06:08;12.20;99.90
18506;DHT22;9382;53.242;10.438;2023-06-14T03:08:39;12.20;99.90
18506;DHT22;9382;53.242;10.438;2023-06-14T03:11:07;12.20;99.90
18506;DHT22;9382;53.242;10.438;2023-06-14T03:13:34;12.20;99.90
18506;DHT22;9382;53.242;10.438;2023-06-14T03:16:01;12.20;99.90
18506;DHT22;9382;53.242;10.438;2023-06-14T03:18:29;12.20;99.90
18506;DHT22;9382;53.242;10.438;2023-06-14T03:20:56;12.20;99.90
18506;DHT22;9382;53.242;10.438;2023-06-14T03:23:25;12.20;99.90
18506;DHT22;9382;53.242;10.438;2023-06-14T03:25:51;12.20;99.90
18506;DHT22;9382;53.242;10.438;2023-06-14T03:28:18;12.20;99.90
18506;DHT22;9382;53.242;10.438;2023-06-14T03:30:45;12.20;99.90
18506;DHT22;9382;53.242;10.438;2023-06-14T03:33:12;12.30;99.90
18506;DHT22;9382;53.242;10.438;2023-06-14T03:35:39;12.30;99.90
18506;DHT22;9382;53.242;10.438;2023-06-14T03:38:05;12.30;99.90
18506;DHT22;9382;53.242;10.438;2023-06-14T03:40:33;12.30;99.90
18506;DHT22;9382;53.242;10.438;2023-06-14T03:43:00;12.40;99.90
18506;DHT22;9382;53.242;10.438;2023-06-14T03:45:26;12.40;99.90
18506;DHT22;9382;53.242;10.438;2023-06-14T03:47:53;12.30;99.90
18506;DHT22;9382;53.242;10.438;2023-06-14T03:50:20;12.40;99.90
18506;DHT22;9382;53.242;10.438;2023-06-14T03:52:47;12.40;99.90
18506;DHT22;9382;53.242;10.438;2023-06-14T03:55:14;12.50;99.90
18506;DHT22;9382;53.242;10.438;2023-06-14T03:57:42;12.50;99.90
18506;DHT22;9382;53.242;10.438;2023-06-14T04:00:10;12.50;99.90
18506;DHT22;9382;53.242;10.438;2023-06-14T04:02:38;12.50;99.90
18506;DHT22;9382;53.242;10.438;2023-06-14T04:05:05;12.60;99.90
18506;DHT22;9382;53.242;10.438;2023-06-14T04:07:34;12.70;99.90
18506;DHT22;9382;53.242;10.438;2023-06-14T04:10:06;12.70;99.90
18506;DHT22;9382;53.242;10.438;2023-06-14T04:12:32;12.70;99.90
18506;DHT22;9382;53.242;10.438;2023-06-14T04:15:00;12.70;99.90
18506;DHT22;9382;53.242;10.438;2023-06-14T04:17:27;12.80;99.90
18506;DHT22;9382;53.242;10.438;2023-06-14T04:19:54;12.80;99.90
18506;DHT22;9382;53.242;10.438;2023-06-14T04:22:20;12.80;99.90
18506;DHT22;9382;53.242;10.438;2023-06-14T04:24:47;12.90;99.90
18506;DHT22;9382;53.242;10.438;2023-06-14T04:27:15;12.90;99.90
18506;DHT22;9382;53.242;10.438;2023-06-14T04:29:47;12.90;99.90
18506;DHT22;9382;53.242;10.438;2023-06-14T04:32:20;13.00;99.90
18506;DHT22;9382;53.242;10.438;2023-06-14T04:34:47;13.00;99.90
18506;DHT22;9382;53.242;10.438;2023-06-14T04:37:14;13.00;99.90
18506;DHT22;9382;53.242;10.438;2023-06-14T04:39:41;13.10;99.90
18506;DHT22;9382;53.242;10.438;2023-06-14T04:42:08;13.10;99.90
18506;DHT22;9382;53.242;10.438;2023-06-14T04:44:37;13.20;99.90
18506;DHT22;9382;53.242;10.438;2023-06-14T04:47:05;13.20;99.90
18506;DHT22;9382;53.242;10.438;2023-06-14T04:49:33;13.20;99.90
18506;DHT22;9382;53.242;10.438;2023-06-14T04:52:00;13.30;99.90
18506;DHT22;9382;53.242;10.438;2023-06-14T04:54:27;13.30;99.90
18506;DHT22;9382;53.242;10.438;2023-06-14T04:56:56;13.40;99.90
18506;DHT22;9382;53.242;10.438;2023-06-14T04:59:23;13.50;99.90
18506;DHT22;9382;53.242;10.438;2023-06-14T05:01:50;13.50;99.90
18506;DHT22;9382;53.242;10.438;2023-06-14T05:04:19;13.60;99.90
18506;DHT22;9382;53.242;10.438;2023-06-14T05:06:48;13.70;99.90
18506;DHT22;9382;53.242;10.438;2023-06-14T05:09:15;13.70;99.90
18506;DHT22;9382;53.242;10.438;2023-06-14T05:11:42;13.80;99.90
18506;DHT22;9382;53.242;10.438;2023-06-14T05:14:09;13.90;99.90
18506;DHT22;9382;53.242;10.438;2023-06-14T05:16:36;13.90;99.90
18506;DHT22;9382;53.242;10.438;2023-06-14T05:19:04;14.00;99.90
18506;DHT22;9382;53.242;10.438;2023-06-14T05:21:31;14.10;99.90
18506;DHT22;9382;53.242;10.438;2023-06-14T05:24:00;14.20;99.90
18506;DHT22;9382;53.242;10.438;2023-06-14T05:26:27;14.30;99.90
18506;DHT22;9382;53.242;10.438;2023-06-14T05:28:54;14.40;99.90
18506;DHT22;9382;53.242;10.438;2023-06-14T05:31:21;14.50;99.90
18506;DHT22;9382;53.242;10.438;2023-06-14T05:33:48;14.50;99.90
18506;DHT22;9382;53.242;10.438;2023-06-14T05:36:15;14.60;99.90
18506;DHT22;9382;53.242;10.438;2023-06-14T05:38:41;14.70;99.90
18506;DHT22;9382;53.242;10.438;2023-06-14T05:41:09;14.80;99.90
18506;DHT22;9382;53.242;10.438;2023-06-14T05:43:36;14.80;99.90
18506;DHT22;9382;53.242;10.438;2023-06-14T05:46:03;14.90;99.90
18506;DHT22;9382;53.242;10.438;2023-06-14T05:48:30;15.00;99.90
18506;DHT22;9382;53.242;10.438;2023-06-14T05:50:57;15.10;99.90
18506;DHT22;9382;53.242;10.438;2023-06-14T05:53:23;15.20;99.90
18506;DHT22;9382;53.242;10.438;2023-06-14T05:55:50;15.30;99.90
18506;DHT22;9382;53.242;10.438;2023-06-14T05:58:21;15.40;99.90
18506;DHT22;9382;53.242;10.438;2023-06-14T06:00:48;15.40;99.90
18506;DHT22;9382;53.242;10.438;2023-06-14T06:03:14;15.50;99.90
18506;DHT22;9382;53.242;10.438;2023-06-14T06:05:41;15.70;99.90
18506;DHT22;9382;53.242;10.438;2023-06-14T06:08:08;15.80;99.90
18506;DHT22;9382;53.242;10.438;2023-06-14T06:10:34;15.90;99.90
18506;DHT22;9382;53.242;10.438;2023-06-14T06:13:01;16.10;99.90
18506;DHT22;9382;53.242;10.438;2023-06-14T06:15:29;16.20;99.90
18506;DHT22;9382;53.242;10.438;2023-06-14T06:17:55;16.30;99.90
18506;DHT22;9382;53.242;10.438;2023-06-14T06:20:22;16.50;99.90
18506;DHT22;9382;53.242;10.438;2023-06-14T06:22:53;16.60;99.90
18506;DHT22;9382;53.242;10.438;2023-06-14T06:25:20;16.70;99.90
18506;DHT22;9382;53.242;10.438;2023-06-14T06:27:47;16.80;99.90
18506;DHT22;9382;53.242;10.438;2023-06-14T06:30:15;16.90;99.90
18506;DHT22;9382;53.242;10.438;2023-06-14T06:32:43;17.00;99.90
18506;DHT22;9382;53.242;10.438;2023-06-14T06:35:10;17.10;99.90
18506;DHT22;9382;53.242;10.438;2023-06-14T06:37:38;17.30;99.90
18506;DHT22;9382;53.242;10.438;2023-06-14T06:40:05;17.40;99.90
18506;DHT22;9382;53.242;10.438;2023-06-14T06:42:33;17.60;99.90
18506;DHT22;9382;53.242;10.438;2023-06-14T06:45:00;17.70;99.90
18506;DHT22;9382;53.242;10.438;2023-06-14T06:47:27;17.90;99.90
18506;DHT22;9382;53.242;10.438;2023-06-14T06:49:55;18.00;99.90
18506;DHT22;9382;53.242;10.438;2023-06-14T06:52:21;18.10;99.90
18506;DHT22;9382;53.242;10.438;2023-06-14T06:54:48;18.20;99.90
18506;DHT22;9382;53.242;10.438;2023-06-14T06:57:16;18.30;99.90
18506;DHT22;9382;53.242;10.438;2023-06-14T06:59:43;18.40;99.90
18506;DHT22;9382;53.242;10.438;2023-06-14T07:02:09;18.60;99.90
18506;DHT22;9382;53.242;10.438;2023-06-14T07:04:36;18.80;99.90
18506;DHT22;9382;53.242;10.438;2023-06-14T07:07:04;18.90;99.90
18506;DHT22;9382;53.242;10.438;2023-06-14T07:09:31;19.00;99.90
18506;DHT22;9382;53.242;10.438;2023-06-14T07:11:57;19.20;99.90
18506;DHT22;9382;53.242;10.438;2023-06-14T07:14:24;19.30;99.90
18506;DHT22;9382;53.242;10.438;2023-06-14T07:16:50;19.50;99.90
18506;DHT22;9382;53.242;10.438;2023-06-14T07:19:17;19.60;99.90
18506;DHT22;9382;53.242;10.438;2023-06-14T07:21:44;19.60;99.90
18506;DHT22;9382;53.242;10.438;2023-06-14T07:24:12;19.70;99.90
18506;DHT22;9382;53.242;10.438;2023-06-14T07:26:38;19.90;99.90
18506;DHT22;9382;53.242;10.438;2023-06-14T07:29:05;20.10;99.90
18506;DHT22;9382;53.242;10.438;2023-06-14T07:31:31;20.20;99.90
18506;DHT22;9382;53.242;10.438;2023-06-14T07:33:58;20.30;99.90
18506;DHT22;9382;53.242;10.438;2023-06-14T07:36:25;20.40;99.90
18506;DHT22;9382;53.242;10.438;2023-06-14T07:38:51;20.50;99.90
18506;DHT22;9382;53.242;10.438;2023-06-14T07:41:19;20.60;99.90
18506;DHT22;9382;53.242;10.438;2023-06-14T07:43:46;20.70;99.90
18506;DHT22;9382;53.242;10.438;2023-06-14T07:46:13;20.80;99.90
18506;DHT22;9382;53.242;10.438;2023-06-14T07:48:40;20.90;99.90
18506;DHT22;9382;53.242;10.438;2023-06-14T07:51:07;21.10;99.90
18506;DHT22;9382;53.242;10.438;2023-06-14T07:53:34;21.30;99.90
18506;DHT22;9382;53.242;10.438;2023-06-14T07:56:00;21.40;99.90
18506;DHT22;9382;53.242;10.438;2023-06-14T07:58:29;21.60;99.90
18506;DHT22;9382;53.242;10.438;2023-06-14T08:00:56;21.70;99.90
18506;DHT22;9382;53.242;10.438;2023-06-14T08:03:22;21.80;99.90
18506;DHT22;9382;53.242;10.438;2023-06-14T08:05:49;21.90;99.90
18506;DHT22;9382;53.242;10.438;2023-06-14T08:08:16;22.00;99.90
18506;DHT22;9382;53.242;10.438;2023-06-14T08:10:43;22.20;99.90
18506;DHT22;9382;53.242;10.438;2023-06-14T08:13:10;22.30;99.90
18506;DHT22;9382;53.242;10.438;2023-06-14T08:15:38;22.30;99.90
18506;DHT22;9382;53.242;10.438;2023-06-14T08:18:05;22.40;99.90
18506;DHT22;9382;53.242;10.438;2023-06-14T08:20:31;22.60;99.90
18506;DHT22;9382;53.242;10.438;2023-06-14T08:23:00;22.70;99.90
18506;DHT22;9382;53.242;10.438;2023-06-14T08:25:27;22.70;99.90
18506;DHT22;9382;53.242;10.438;2023-06-14T08:27:53;22.80;99.90
18506;DHT22;9382;53.242;10.438;2023-06-14T08:30:20;22.80;99.90
18506;DHT22;9382;53.242;10.438;2023-06-14T08:32:49;23.00;99.90
18506;DHT22;9382;53.242;10.438;2023-06-14T08:35:16;23.20;99.90
18506;DHT22;9382;53.242;10.438;2023-06-14T08:37:43;23.20;99.90
18506;DHT22;9382;53.242;10.438;2023-06-14T08:40:18;23.30;99.90
18506;DHT22;9382;53.242;10.438;2023-06-14T08:42:48;23.50;99.90
18506;DHT22;9382;53.242;10.438;2023-06-14T08:45:16;23.70;99.90
18506;DHT22;9382;53.242;10.438;2023-06-14T08:47:44;23.80;99.90
18506;DHT22;9382;53.242;10.438;2023-06-14T08:50:12;24.00;99.90
18506;DHT22;9382;53.242;10.438;2023-06-14T08:52:45;24.00;99.90
18506;DHT22;9382;53.242;10.438;2023-06-14T08:55:16;24.00;99.90
18506;DHT22;9382;53.242;10.438;2023-06-14T08:57:46;24.20;99.90
18506;DHT22;9382;53.242;10.438;2023-06-14T09:00:13;24.30;99.90
18506;DHT22;9382;53.242;10.438;2023-06-14T09:02:40;24.50;99.90
18506;DHT22;9382;53.242;10.438;2023-06-14T09:05:09;24.40;99.90
18506;DHT22;9382;53.242;10.438;2023-06-14T09:07:37;24.30;99.90
18506;DHT22;9382;53.242;10.438;2023-06-14T09:10:07;24.20;99.90
18506;DHT22;9382;53.242;10.438;2023-06-14T09:12:35;24.50;99.90
18506;DHT22;9382;53.242;10.438;2023-06-14T09:15:02;24.80;99.90
18506;DHT22;9382;53.242;10.438;2023-06-14T09:17:32;25.10;99.90
18506;DHT22;9382;53.242;10.438;2023-06-14T09:20:00;25.30;99.90
18506;DHT22;9382;53.242;10.438;2023-06-14T09:22:29;25.40;99.90
18506;DHT22;9382;53.242;10.438;2023-06-14T09:24:57;25.70;99.90
18506;DHT22;9382;53.242;10.438;2023-06-14T09:27:25;25.80;99.90
18506;DHT22;9382;53.242;10.438;2023-06-14T09:29:52;25.90;99.90
18506;DHT22;9382;53.242;10.438;2023-06-14T09:32:19;26.00;99.90
18506;DHT22;9382;53.242;10.438;2023-06-14T09:34:46;26.10;99.90
18506;DHT22;9382;53.242;10.438;2023-06-14T09:37:26;26.40;99.90
18506;DHT22;9382;53.242;10.438;2023-06-14T09:39:53;26.80;99.90
18506;DHT22;9382;53.242;10.438;2023-06-14T09:42:22;26.90;99.90
18506;DHT22;9382;53.242;10.438;2023-06-14T09:44:52;26.70;99.90
18506;DHT22;9382;53.242;10.438;2023-06-14T09:47:19;26.00;99.90
18506;DHT22;9382;53.242;10.438;2023-06-14T09:49:46;25.70;99.90
18506;DHT22;9382;53.242;10.438;2023-06-14T09:52:14;25.70;99.90
18506;DHT22;9382;53.242;10.438;2023-06-14T09:54:44;26.20;99.90
18506;DHT22;9382;53.242;10.438;2023-06-14T09:57:12;26.70;99.90
18506;DHT22;9382;53.242;10.438;2023-06-14T09:59:42;27.30;99.90
18506;DHT22;9382;53.242;10.438;2023-06-14T10:02:11;27.70;99.90
18506;DHT22;9382;53.242;10.438;2023-06-14T10:04:46;28.10;99.90
18506;DHT22;9382;53.242;10.438;2023-06-14T10:07:19;28.10;99.90
18506;DHT22;9382;53.242;10.438;2023-06-14T10:09:47;27.70;99.90
18506;DHT22;9382;53.242;10.438;2023-06-14T10:12:16;27.40;99.90
18506;DHT22;9382;53.242;10.438;2023-06-14T10:14:48;27.20;99.90
18506;DHT22;9382;53.242;10.438;2023-06-14T10:17:22;27.40;99.90
18506;DHT22;9382;53.242;10.438;2023-06-14T10:19:54;27.70;99.90
18506;DHT22;9382;53.242;10.438;2023-06-14T10:22:25;27.60;99.90
18506;DHT22;9382;53.242;10.438;2023-06-14T10:24:54;27.10;99.90
18506;DHT22;9382;53.242;10.438;2023-06-14T10:27:20;26.50;99.90
18506;DHT22;9382;53.242;10.438;2023-06-14T10:30:14;26.40;99.90
18506;DHT22;9382;53.242;10.438;2023-06-14T10:33:05;26.90;99.90
18506;DHT22;9382;53.242;10.438;2023-06-14T10:35:32;27.20;99.90
18506;DHT22;9382;53.242;10.438;2023-06-14T10:38:09;27.00;99.90
18506;DHT22;9382;53.242;10.438;2023-06-14T10:40:36;27.20;99.90
18506;DHT22;9382;53.242;10.438;2023-06-14T10:43:21;27.60;99.90
18506;DHT22;9382;53.242;10.438;2023-06-14T10:46:16;28.10;99.90
18506;DHT22;9382;53.242;10.438;2023-06-14T10:48:44;28.30;99.90
18506;DHT22;9382;53.242;10.438;2023-06-14T10:51:18;27.80;99.90
18506;DHT22;9382;53.242;10.438;2023-06-14T10:53:46;27.70;99.90
18506;DHT22;9382;53.242;10.438;2023-06-14T10:56:29;28.00;99.90
18506;DHT22;9382;53.242;10.438;2023-06-14T10:58:57;28.50;99.90
18506;DHT22;9382;53.242;10.438;2023-06-14T11:01:34;29.10;99.90
18506;DHT22;9382;53.242;10.438;2023-06-14T11:04:07;29.50;99.90
18506;DHT22;9382;53.242;10.438;2023-06-14T11:06:45;30.10;99.30
18506;DHT22;9382;53.242;10.438;2023-06-14T11:09:44;30.10;96.70
18506;DHT22;9382;53.242;10.438;2023-06-14T11:12:14;29.60;97.00
18506;DHT22;9382;53.242;10.438;2023-06-14T11:14:42;28.90;94.60
18506;DHT22;9382;53.242;10.438;2023-06-14T11:17:12;28.10;96.50
18506;DHT22;9382;53.242;10.438;2023-06-14T11:19:38;27.60;96.30
18506;DHT22;9382;53.242;10.438;2023-06-14T11:22:05;27.20;99.60
18506;DHT22;9382;53.242;10.438;2023-06-14T11:24:32;27.60;99.00
18506;DHT22;9382;53.242;10.438;2023-06-14T11:26:59;27.80;96.90
18506;DHT22;9382;53.242;10.438;2023-06-14T11:29:25;28.20;96.10
18506;DHT22;9382;53.242;10.438;2023-06-14T11:31:55;28.80;99.70
18506;DHT22;9382;53.242;10.438;2023-06-14T11:34:24;29.70;98.00
18506;DHT22;9382;53.242;10.438;2023-06-14T11:36:51;30.10;97.00
18506;DHT22;9382;53.242;10.438;2023-06-14T11:39:17;30.40;93.00
18506;DHT22;9382;53.242;10.438;2023-06-14T11:41:50;30.50;97.30
18506;DHT22;9382;53.242;10.438;2023-06-14T11:44:17;30.40;96.00
18506;DHT22;9382;53.242;10.438;2023-06-14T11:46:44;30.40;93.40
18506;DHT22;9382;53.242;10.438;2023-06-14T11:49:11;30.70;93.30
18506;DHT22;9382;53.242;10.438;2023-06-14T11:51:39;30.50;94.10
18506;DHT22;9382;53.242;10.438;2023-06-14T11:54:06;30.00;92.10
18506;DHT22;9382;53.242;10.438;2023-06-14T11:56:34;28.90;92.60
18506;DHT22;9382;53.242;10.438;2023-06-14T11:59:03;28.10;92.10
18506;DHT22;9382;53.242;10.438;2023-06-14T12:01:31;27.60;93.20
18506;DHT22;9382;53.242;10.438;2023-06-14T12:03:59;27.50;93.50
18506;DHT22;9382;53.242;10.438;2023-06-14T12:06:27;27.70;93.80
18506;DHT22;9382;53.242;10.438;2023-06-14T12:09:02;28.10;96.40
18506;DHT22;9382;53.242;10.438;2023-06-14T12:11:32;27.80;93.10
18506;DHT22;9382;53.242;10.438;2023-06-14T12:13:59;27.40;92.60
18506;DHT22;9382;53.242;10.438;2023-06-14T12:16:31;27.00;96.60
18506;DHT22;9382;53.242;10.438;2023-06-14T12:19:00;26.70;94.00
18506;DHT22;9382;53.242;10.438;2023-06-14T12:21:27;26.50;95.50
18506;DHT22;9382;53.242;10.438;2023-06-14T12:23:54;26.60;95.60
18506;DHT22;9382;53.242;10.438;2023-06-14T12:26:24;27.80;95.40
18506;DHT22;9382;53.242;10.438;2023-06-14T12:28:52;29.00;92.50
18506;DHT22;9382;53.242;10.438;2023-06-14T12:31:19;29.70;94.80
18506;DHT22;9382;53.242;10.438;2023-06-14T12:33:46;30.80;93.20
18506;DHT22;9382;53.242;10.438;2023-06-14T12:36:14;30.40;89.50
18506;DHT22;9382;53.242;10.438;2023-06-14T12:38:41;29.50;90.30
18506;DHT22;9382;53.242;10.438;2023-06-14T12:41:07;28.90;91.70
18506;DHT22;9382;53.242;10.438;2023-06-14T12:43:35;29.30;92.50
18506;DHT22;9382;53.242;10.438;2023-06-14T12:46:02;29.60;90.50
18506;DHT22;9382;53.242;10.438;2023-06-14T12:48:29;29.20;92.30
18506;DHT22;9382;53.242;10.438;2023-06-14T12:50:56;29.20;89.80
18506;DHT22;9382;53.242;10.438;2023-06-14T12:53:23;28.60;91.40
18506;DHT22;9382;53.242;10.438;2023-06-14T12:55:50;28.60;91.00
18506;DHT22;9382;53.242;10.438;2023-06-14T12:58:17;29.80;93.50
18506;DHT22;9382;53.242;10.438;2023-06-14T13:00:46;30.30;93.90
18506;DHT22;9382;53.242;10.438;2023-06-14T13:03:13;29.90;92.30
18506;DHT22;9382;53.242;10.438;2023-06-14T13:05:39;30.40;92.20
18506;DHT22;9382;53.242;10.438;2023-06-14T13:08:08;31.90;90.80
18506;DHT22;9382;53.242;10.438;2023-06-14T13:10:35;33.20;90.10
18506;DHT22;9382;53.242;10.438;2023-06-14T13:13:01;34.50;87.60
18506;DHT22;9382;53.242;10.438;2023-06-14T13:15:28;35.30;86.00
18506;DHT22;9382;53.242;10.438;2023-06-14T13:17:56;35.90;80.90
18506;DHT22;9382;53.242;10.438;2023-06-14T13:20:23;36.30;81.40
18506;DHT22;9382;53.242;10.438;2023-06-14T13:22:50;36.50;80.50
18506;DHT22;9382;53.242;10.438;2023-06-14T13:25:16;35.60;72.20
18506;DHT22;9382;53.242;10.438;2023-06-14T13:27:43;34.10;73.80
18506;DHT22;9382;53.242;10.438;2023-06-14T13:30:10;32.40;78.10
18506;DHT22;9382;53.242;10.438;2023-06-14T13:32:37;31.00;78.20
18506;DHT22;9382;53.242;10.438;2023-06-14T13:35:06;30.70;77.40
18506;DHT22;9382;53.242;10.438;2023-06-14T13:37:33;31.60;77.60
18506;DHT22;9382;53.242;10.438;2023-06-14T13:39:59;31.20;76.70
18506;DHT22;9382;53.242;10.438;2023-06-14T13:42:27;30.40;80.80
18506;DHT22;9382;53.242;10.438;2023-06-14T13:44:56;29.60;80.50
18506;DHT22;9382;53.242;10.438;2023-06-14T13:47:23;29.00;78.80
18506;DHT22;9382;53.242;10.438;2023-06-14T13:49:49;30.40;81.00
18506;DHT22;9382;53.242;10.438;2023-06-14T13:52:17;32.30;75.10
18506;DHT22;9382;53.242;10.438;2023-06-14T13:54:44;34.00;75.40
18506;DHT22;9382;53.242;10.438;2023-06-14T13:57:11;35.10;72.80
18506;DHT22;9382;53.242;10.438;2023-06-14T13:59:38;35.10;70.20
18506;DHT22;9382;53.242;10.438;2023-06-14T14:02:05;33.80;73.90
18506;DHT22;9382;53.242;10.438;2023-06-14T14:04:33;32.30;77.70
18506;DHT22;9382;53.242;10.438;2023-06-14T14:07:00;30.90;77.70
18506;DHT22;9382;53.242;10.438;2023-06-14T14:09:28;29.90;79.60
18506;DHT22;9382;53.242;10.438;2023-06-14T14:11:55;28.90;77.30
18506;DHT22;9382;53.242;10.438;2023-06-14T14:14:22;28.20;80.50
18506;DHT22;9382;53.242;10.438;2023-06-14T14:16:49;27.50;82.60
18506;DHT22;9382;53.242;10.438;2023-06-14T14:19:16;27.10;83.10
18506;DHT22;9382;53.242;10.438;2023-06-14T14:21:44;26.70;85.50
18506;DHT22;9382;53.242;10.438;2023-06-14T14:24:10;26.50;87.50
18506;DHT22;9382;53.242;10.438;2023-06-14T14:26:38;26.50;86.80
18506;DHT22;9382;53.242;10.438;2023-06-14T14:29:05;26.60;89.80
18506;DHT22;9382;53.242;10.438;2023-06-14T14:31:32;27.80;84.70
18506;DHT22;9382;53.242;10.438;2023-06-14T14:33:59;28.80;89.80
18506;DHT22;9382;53.242;10.438;2023-06-14T14:36:25;30.60;90.20
18506;DHT22;9382;53.242;10.438;2023-06-14T14:38:52;31.80;80.90
18506;DHT22;9382;53.242;10.438;2023-06-14T14:41:19;31.50;80.70
18506;DHT22;9382;53.242;10.438;2023-06-14T14:43:47;31.00;82.00
18506;DHT22;9382;53.242;10.438;2023-06-14T14:46:13;30.10;81.60
18506;DHT22;9382;53.242;10.438;2023-06-14T14:48:42;29.60;81.80
18506;DHT22;9382;53.242;10.438;2023-06-14T14:51:08;29.00;84.10
18506;DHT22;9382;53.242;10.438;2023-06-14T14:53:35;28.60;90.00
18506;DHT22;9382;53.242;10.438;2023-06-14T14:56:02;28.20;85.60
18506;DHT22;9382;53.242;10.438;2023-06-14T14:58:28;28.40;84.00
18506;DHT22;9382;53.242;10.438;2023-06-14T15:00:56;30.20;85.20
18506;DHT22;9382;53.242;10.438;2023-06-14T15:03:23;32.40;84.60
18506;DHT22;9382;53.242;10.438;2023-06-14T15:05:49;34.30;78.10
18506;DHT22;9382;53.242;10.438;2023-06-14T15:08:16;35.80;73.50
18506;DHT22;9382;53.242;10.438;2023-06-14T15:10:43;37.00;71.60
18506;DHT22;9382;53.242;10.438;2023-06-14T15:13:10;37.90;69.50
18506;DHT22;9382;53.242;10.438;2023-06-14T15:15:37;38.40;70.10
18506;DHT22;9382;53.242;10.438;2023-06-14T15:18:05;38.70;74.10
18506;DHT22;9382;53.242;10.438;2023-06-14T15:20:32;38.70;68.30
18506;DHT22;9382;53.242;10.438;2023-06-14T15:22:59;38.40;68.30
18506;DHT22;9382;53.242;10.438;2023-06-14T15:25:26;36.80;69.00
18506;DHT22;9382;53.242;10.438;2023-06-14T15:27:52;34.60;70.90
18506;DHT22;9382;53.242;10.438;2023-06-14T15:30:19;32.70;77.30
18506;DHT22;9382;53.242;10.438;2023-06-14T15:32:46;33.10;73.70
18506;DHT22;9382;53.242;10.438;2023-06-14T15:35:15;33.50;73.00